Time;durP1;ratioP1;P1;durP2;ratioP2;P2;SDS_P1;SDS_P2;PMS_P1;PMS_P2;Temp;Humidity;BMP_temperature;BMP_pressure;BME280_temperature;BME280_humidity;BME280_pressure;Samples;Min_cycle;Max_cycle;Signal;HPM_P1;HPM_P2
2024/01/30 00:00:36;;;;;;;15.13;10.02;;;;;;;8.11;100.00;102575.72;5041278;28;20040;-66
2024/01/30 00:03:02;;;;;;;14.25;10.23;;;;;;;8.10;100.00;102574.03;5040428;28;20114;-66
2024/01/30 00:05:27;;;;;;;13.82;10.10;;;;;;;8.08;100.00;102576.75;5042110;28;20029;-66
2024/01/30 00:07:52;;;;;;;13.07;10.00;;;;;;;8.04;100.00;102579.72;5045349;28;20077;-66
2024/01/30 00:10:18;;;;;;;12.77;9.95;;;;;;;8.00;100.00;102578.28;5043618;28;20068;-66
2024/01/30 00:12:43;;;;;;;15.40;10.60;;;;;;;7.98;100.00;102574.91;5041988;28;20383;-66
2024/01/30 00:15:09;;;;;;;13.13;9.73;;;;;;;7.96;100.00;102582.94;5043006;28;20776;-66
2024/01/30 00:17:36;;;;;;;14.07;9.90;;;;;;;7.91;100.00;102578.94;5033172;28;20109;-67
2024/01/30 00:20:05;;;;;;;13.68;10.13;;;;;;;7.89;100.00;102572.91;5032454;28;20033;-66
2024/01/30 00:22:30;;;;;;;15.77;10.15;;;;;;;7.87;100.00;102572.19;5031768;28;20772;-66
2024/01/30 00:24:56;;;;;;;14.85;10.75;;;;;;;7.85;100.00;102560.88;5035057;28;20094;-66
2024/01/30 00:27:21;;;;;;;13.57;10.27;;;;;;;7.82;100.00;102572.53;5043472;28;20024;-67
2024/01/30 00:29:46;;;;;;;15.55;10.15;;;;;;;7.81;100.00;102570.00;5033120;28;20028;-66
2024/01/30 00:32:12;;;;;;;15.93;10.20;;;;;;;7.80;100.00;102570.91;5039748;28;20124;-66
2024/01/30 00:34:37;;;;;;;15.50;10.23;;;;;;;7.75;100.00;102561.50;5032599;28;20641;-66
2024/01/30 00:37:02;;;;;;;13.30;9.75;;;;;;;7.73;100.00;102555.50;5043953;28;20068;-66
2024/01/30 00:39:28;;;;;;;14.75;9.18;;;;;;;7.70;100.00;102557.53;5043368;28;20032;-67
2024/01/30 00:41:53;;;;;;;13.95;9.68;;;;;;;7.68;100.00;102555.00;5040528;28;20032;-67
2024/01/30 00:44:18;;;;;;;13.43;9.13;;;;;;;7.67;100.00;102550.66;5037779;28;20773;-67
2024/01/30 00:46:44;;;;;;;13.68;9.60;;;;;;;7.64;100.00;102545.59;5041271;28;20159;-66
2024/01/30 00:49:10;;;;;;;13.68;9.75;;;;;;;7.63;100.00;102551.00;5030585;28;20036;-66
2024/01/30 00:51:36;;;;;;;17.63;9.90;;;;;;;7.60;100.00;102549.41;5039197;28;20696;-66
2024/01/30 00:54:02;;;;;;;14.60;10.30;;;;;;;7.60;100.00;102554.69;5040558;28;20024;-66
2024/01/30 00:56:28;;;;;;;16.80;9.73;;;;;;;7.60;100.00;102543.28;5038287;28;20036;-67
2024/01/30 00:58:53;;;;;;;14.50;9.38;;;;;;;7.60;100.00;102548.56;5040706;28;20025;-66
2024/01/30 01:01:19;;;;;;;15.85;9.48;;;;;;;7.59;100.00;102541.59;5037753;28;20772;-66
2024/01/30 01:03:44;;;;;;;13.25;9.02;;;;;;;7.55;100.00;102532.19;5041570;28;20036;-67
2024/01/30 01:06:10;;;;;;;14.70;8.88;;;;;;;7.56;100.00;102540.00;5036224;28;20506;-66
2024/01/30 01:08:35;;;;;;;11.88;8.48;;;;;;;7.53;100.00;102540.22;5039783;28;20083;-66
2024/01/30 01:11:01;;;;;;;13.50;9.38;;;;;;;7.55;100.00;102540.13;5040699;28;20723;-67
2024/01/30 01:13:26;;;;;;;13.00;9.45;;;;;;;7.53;100.00;102534.94;5041187;28;20025;-66
2024/01/30 01:15:51;;;;;;;13.65;8.90;;;;;;;7.54;100.00;102536.63;5040694;28;20169;-66
2024/01/30 01:18:17;;;;;;;11.68;9.27;;;;;;;7.55;100.00;102538.31;5042163;28;20808;-67
2024/01/30 01:20:42;;;;;;;12.05;8.70;;;;;;;7.54;100.00;102535.78;5043824;28;20033;-66
2024/01/30 01:23:07;;;;;;;15.43;9.20;;;;;;;7.55;100.00;102534.84;5042149;28;20228;-66
2024/01/30 01:25:33;;;;;;;14.88;8.93;;;;;;;7.53;100.00;102532.31;5048075;28;20029;-66
2024/01/30 01:28:01;;;;;;;13.73;8.93;;;;;;;7.53;100.00;102537.59;5039594;28;20028;-67
2024/01/30 01:30:26;;;;;;;12.52;9.15;;;;;;;7.48;100.00;102537.03;5044490;28;20044;-66
2024/01/30 01:32:54;;;;;;;11.38;8.50;;;;;;;7.49;100.00;102540.53;5041046;28;20032;-66
2024/01/30 01:35:27;;;;;;;11.90;8.88;;;;;;;7.47;100.00;102532.72;5033492;28;20073;-66
2024/01/30 01:37:57;;;;;;;11.27;8.57;;;;;;;7.45;100.00;102534.63;5039453;28;20057;-66
2024/01/30 01:40:24;;;;;;;13.98;9.25;;;;;;;7.44;100.00;102532.94;5041827;28;20064;-66
2024/01/30 01:42:51;;;;;;;12.05;8.95;;;;;;;7.44;100.00;102525.00;5036676;28;20025;-66
2024/01/30 01:45:17;;;;;;;12.65;8.73;;;;;;;7.41;100.00;102512.00;5040863;28;20032;-67
2024/01/30 01:47:45;;;;;;;13.95;8.82;;;;;;;7.43;100.00;102526.81;5035285;28;20404;-67
2024/01/30 01:50:12;;;;;;;14.50;9.43;;;;;;;7.43;100.00;102520.66;5041711;28;20100;-66
2024/01/30 01:52:38;;;;;;;12.20;9.35;;;;;;;7.41;100.00;102518.13;5031726;28;20021;-66
2024/01/30 01:55:04;;;;;;;13.70;9.63;;;;;;;7.40;100.00;102515.59;5037406;28;20037;-66
2024/01/30 01:57:30;;;;;;;14.75;9.10;;;;;;;7.41;100.00;102517.28;5039698;28;20803;-67
2024/01/30 01:59:55;;;;;;;13.57;8.95;;;;;;;7.40;100.00;102515.59;5035809;28;20116;-66
2024/01/30 02:02:23;;;;;;;13.02;9.05;;;;;;;7.42;100.00;102516.34;5041740;28;20029;-66
2024/01/30 02:04:48;;;;;;;14.85;8.75;;;;;;;7.43;100.00;102521.50;5038040;28;20028;-66
2024/01/30 02:07:14;;;;;;;12.00;9.50;;;;;;;7.42;100.00;102513.69;5041384;28;20033;-66
2024/01/30 02:09:39;;;;;;;12.88;8.90;;;;;;;7.45;100.00;102510.81;5035748;28;20036;-67
2024/01/30 02:12:05;;;;;;;13.52;9.38;;;;;;;7.45;100.00;102505.53;5041528;28;20032;-66
2024/01/30 02:14:30;;;;;;;12.65;9.20;;;;;;;7.46;100.00;102505.44;5040395;28;20024;-66
2024/01/30 02:16:55;;;;;;;11.30;8.93;;;;;;;7.47;100.00;102512.41;5041027;28;20585;-66
2024/01/30 02:19:21;;;;;;;13.60;9.10;;;;;;;7.48;100.00;102510.59;5040951;28;20629;-66
2024/01/30 02:21:46;;;;;;;13.30;9.32;;;;;;;7.48;100.00;102502.69;5035668;28;20040;-66
2024/01/30 02:24:11;;;;;;;13.73;9.10;;;;;;;7.47;100.00;102508.91;5043885;28;20506;-67
2024/01/30 02:26:37;;;;;;;12.68;9.25;;;;;;;7.42;100.00;102501.31;5048315;28;20432;-67
2024/01/30 02:29:02;;;;;;;13.68;9.52;;;;;;;7.39;100.00;102504.19;5040006;28;20028;-66
2024/01/30 02:31:27;;;;;;;14.75;9.73;;;;;;;7.38;100.00;102512.22;5044260;28;20498;-66
2024/01/30 02:33:53;;;;;;;14.23;9.27;;;;;;;7.35;100.00;102512.44;5049167;28;20031;-67
2024/01/30 02:36:18;;;;;;;14.70;9.00;;;;;;;7.36;100.00;102512.34;5045337;28;21419;-66
2024/01/30 02:38:43;;;;;;;13.82;8.70;;;;;;;7.36;100.00;102509.69;5049200;28;20502;-67
2024/01/30 02:41:09;;;;;;;14.73;9.00;;;;;;;7.36;100.00;102509.69;5039120;28;20185;-66
2024/01/30 02:43:34;;;;;;;14.30;9.07;;;;;;;7.38;100.00;102501.66;5044595;28;20029;-67
2024/01/30 02:46:00;;;;;;;13.40;9.63;;;;;;;7.31;100.00;102490.69;5045010;28;20036;-66
2024/01/30 02:48:26;;;;;;;12.05;8.88;;;;;;;7.37;100.00;102495.53;5044012;28;20033;-67
2024/01/30 02:50:51;;;;;;;13.63;8.77;;;;;;;7.38;100.00;102496.38;5039826;28;20079;-66
2024/01/30 02:53:16;;;;;;;14.45;8.98;;;;;;;7.40;100.00;102492.66;5038567;28;20036;-66
2024/01/30 02:55:42;;;;;;;13.25;8.90;;;;;;;7.40;100.00;102494.47;5041708;28;20427;-66
2024/01/30 02:58:07;;;;;;;12.38;8.65;;;;;;;7.42;100.00;102488.09;5043395;28;20108;-66
2024/01/30 03:00:32;;;;;;;14.48;9.02;;;;;;;7.43;100.00;102491.59;5039751;28;20383;-66
2024/01/30 03:02:58;;;;;;;13.73;8.95;;;;;;;7.41;100.00;102481.13;5040390;28;20422;-66
2024/01/30 03:05:23;;;;;;;12.90;9.00;;;;;;;7.42;100.00;102481.97;5045542;28;20033;-66
2024/01/30 03:07:48;;;;;;;13.77;9.23;;;;;;;7.41;100.00;102480.28;5043664;28;20025;-66
2024/01/30 03:10:14;;;;;;;15.32;9.23;;;;;;;7.39;100.00;102480.41;5044131;28;20777;-66
2024/01/30 03:12:39;;;;;;;14.45;9.00;;;;;;;7.38;100.00;102478.72;5042122;28;20037;-66
2024/01/30 03:15:05;;;;;;;11.98;8.95;;;;;;;7.38;100.00;102472.59;5044526;28;20101;-66
2024/01/30 03:17:30;;;;;;;15.15;8.93;;;;;;;7.38;100.00;102465.50;5038772;28;20875;-67
2024/01/30 03:19:55;;;;;;;13.77;9.20;;;;;;;7.36;100.00;102470.06;5040458;28;20032;-66
2024/01/30 03:22:20;;;;;;;12.05;8.20;;;;;;;7.37;100.00;102460.31;5035964;28;20059;-66
2024/01/30 03:24:46;;;;;;;12.90;9.02;;;;;;;7.36;100.00;102461.28;5039202;28;20053;-67
2024/01/30 03:27:11;;;;;;;13.27;9.10;;;;;;;7.34;100.00;102461.38;5041842;28;20039;-67
2024/01/30 03:29:36;;;;;;;12.63;8.63;;;;;;;7.30;100.00;102456.44;5040202;28;20036;-66
2024/01/30 03:32:03;;;;;;;14.65;9.55;;;;;;;7.33;100.00;102456.22;5040968;28;20115;-66
2024/01/30 03:34:29;;;;;;;12.02;8.45;;;;;;;7.32;100.00;102455.38;5040115;28;20375;-66
2024/01/30 03:36:54;;;;;;;14.95;8.85;;;;;;;7.32;100.00;102460.66;5041484;28;20044;-66
2024/01/30 03:39:19;;;;;;;13.82;9.00;;;;;;;7.33;100.00;102462.34;5047879;28;20433;-66
2024/01/30 03:41:45;;;;;;;12.52;8.73;;;;;;;7.36;100.00;102461.28;5042531;28;20033;-66
2024/01/30 03:44:10;;;;;;;13.77;9.00;;;;;;;7.39;100.00;102461.91;5043547;28;20095;-66
2024/01/30 03:46:36;;;;;;;13.63;8.48;;;;;;;7.43;100.00;102468.66;5041397;28;20119;-67
2024/01/30 03:49:01;;;;;;;12.80;8.73;;;;;;;7.47;100.00;102472.75;5042233;28;20079;-67
2024/01/30 03:51:27;;;;;;;13.52;8.68;;;;;;;7.46;100.00;102467.59;5039032;28;20024;-66
2024/01/30 03:53:52;;;;;;;12.57;8.68;;;;;;;7.47;100.00;102472.75;5039945;28;20036;-66
2024/01/30 03:56:17;;;;;;;12.65;8.48;;;;;;;7.47;100.00;102470.13;5034015;28;20029;-66
2024/01/30 03:58:42;;;;;;;11.43;9.10;;;;;;;7.52;100.00;102477.75;5034328;28;20037;-67
2024/01/30 04:01:13;;;;;;;15.23;8.95;;;;;;;7.50;100.00;102474.34;5038404;28;20060;-66
2024/01/30 04:03:39;;;;;;;13.07;8.50;;;;;;;7.52;100.00;102474.22;5041377;28;20727;-66
2024/01/30 04:06:04;;;;;;;13.48;8.68;;;;;;;7.53;100.00;102462.72;5041359;28;20524;-67
2024/01/30 04:08:30;;;;;;;15.13;8.43;;;;;;;7.52;100.00;102471.56;5042050;28;20078;-66
2024/01/30 04:10:55;;;;;;;10.65;7.82;;;;;;;7.53;100.00;102471.50;5031935;28;20056;-67
2024/01/30 04:13:20;;;;;;;12.30;8.25;;;;;;;7.55;100.00;102468.75;5038233;28;20066;-66
2024/01/30 04:15:46;;;;;;;13.23;8.55;;;;;;;7.55;100.00;102466.94;5041487;28;20079;-66
2024/01/30 04:18:11;;;;;;;12.48;8.65;;;;;;;7.61;100.00;102471.78;5039848;28;20072;-67
2024/01/30 04:20:36;;;;;;;13.63;8.50;;;;;;;7.61;100.00;102469.13;5035673;28;20032;-67
2024/01/30 04:23:02;;;;;;;12.90;8.07;;;;;;;7.65;100.00;102465.31;5034587;28;20108;-66
2024/01/30 04:25:27;;;;;;;13.27;9.02;;;;;;;7.67;100.00;102462.56;5038399;28;20383;-66
2024/01/30 04:27:52;;;;;;;13.35;8.48;;;;;;;7.68;100.00;102461.59;5042481;28;20036;-67
2024/01/30 04:30:18;;;;;;;13.38;8.73;;;;;;;7.69;100.00;102461.47;5036024;28;20185;-67
2024/01/30 04:32:43;;;;;;;11.77;8.25;;;;;;;7.66;100.00;102448.50;5040334;28;20037;-66
2024/01/30 04:35:09;;;;;;;11.93;8.18;;;;;;;7.67;100.00;102438.75;5035972;28;20074;-66
2024/01/30 04:37:34;;;;;;;11.70;8.30;;;;;;;7.66;100.00;102432.63;5039384;28;20049;-67
2024/01/30 04:39:59;;;;;;;12.85;8.55;;;;;;;7.67;100.00;102438.75;5037834;28;20028;-67
2024/01/30 04:42:25;;;;;;;11.70;8.43;;;;;;;7.66;100.00;102437.91;5037941;28;20060;-66
2024/01/30 04:44:50;;;;;;;11.02;7.85;;;;;;;7.67;100.00;102439.59;5030538;28;20056;-67
2024/01/30 04:47:16;;;;;;;12.00;8.30;;;;;;;7.69;100.00;102440.31;5034423;28;20021;-66
2024/01/30 04:49:41;;;;;;;10.45;8.07;;;;;;;7.75;100.00;102446.97;5035686;28;20029;-67
2024/01/30 04:52:07;;;;;;;11.20;7.90;;;;;;;7.80;100.00;102449.25;5029853;28;20037;-66
2024/01/30 04:54:34;;;;;;;9.98;7.75;;;;;;;7.82;100.00;102448.22;5038495;28;20033;-67
2024/01/30 04:56:59;;;;;;;13.55;8.40;;;;;;;7.84;100.00;102442.81;5035731;28;20473;-67
2024/01/30 04:59:25;;;;;;;12.43;8.20;;;;;;;7.88;100.00;102446.91;5047486;28;20100;-67
2024/01/30 05:01:50;;;;;;;13.18;8.65;;;;;;;7.93;100.00;102447.41;5040261;28;20051;-67
2024/01/30 05:04:15;;;;;;;11.68;8.27;;;;;;;8.00;100.00;102457.41;5039012;28;20035;-67
2024/01/30 05:06:41;;;;;;;12.48;8.15;;;;;;;8.02;100.00;102452.00;5039337;28;20024;-66
2024/01/30 05:09:06;;;;;;;14.07;8.35;;;;;;;8.04;100.00;102443.00;5041997;28;20398;-67
2024/01/30 05:11:36;;;;;;;11.38;8.27;;;;;;;8.03;100.00;102437.81;5046622;28;20031;-66
2024/01/30 05:14:01;;;;;;;11.98;8.18;;;;;;;8.04;100.00;102436.88;5040429;28;20032;-66
2024/01/30 05:16:27;;;;;;;14.23;8.32;;;;;;;8.06;100.00;102446.38;5044831;28;20032;-67
2024/01/30 05:18:52;;;;;;;13.40;8.30;;;;;;;8.08;100.00;102440.97;5040780;28;20029;-66
2024/01/30 05:21:17;;;;;;;11.23;8.15;;;;;;;8.06;100.00;102437.59;5039285;28;20555;-66
2024/01/30 05:23:43;;;;;;;12.68;8.25;;;;;;;8.03;100.00;102437.81;5042402;28;20269;-67
2024/01/30 05:26:08;;;;;;;12.15;8.10;;;;;;;7.99;100.00;102436.38;5042997;28;20033;-66
2024/01/30 05:28:33;;;;;;;13.55;8.60;;;;;;;8.00;100.00;102432.75;5040399;28;20112;-66
2024/01/30 05:30:59;;;;;;;12.77;7.70;;;;;;;8.00;100.00;102438.91;5040155;28;20041;-67
2024/01/30 05:33:24;;;;;;;15.25;8.15;;;;;;;8.00;100.00;102438.06;5039595;28;20853;-68
2024/01/30 05:35:50;;;;;;;9.85;7.32;;;;;;;8.04;100.00;102447.44;5042032;28;20037;-66
2024/01/30 05:38:16;;;;;;;13.40;8.43;;;;;;;8.04;100.00;102447.44;5041444;28;20039;-67
2024/01/30 05:40:41;;;;;;;12.93;8.10;;;;;;;8.04;100.00;102444.81;5043413;28;20029;-66
2024/01/30 05:43:07;;;;;;;13.10;8.60;;;;;;;8.05;100.00;102434.09;5044519;28;20025;-67
2024/01/30 05:45:34;;;;;;;11.98;7.55;;;;;;;8.04;100.00;102436.88;5042170;28;20165;-67
2024/01/30 05:47:59;;;;;;;12.95;8.25;;;;;;;8.08;100.00;102433.88;5038443;28;20734;-66
2024/01/30 05:50:26;;;;;;;15.75;8.73;;;;;;;8.08;100.00;102439.16;5039555;28;20030;-66
2024/01/30 05:52:51;;;;;;;12.10;8.18;;;;;;;8.10;100.00;102435.59;5038733;28;20033;-67
2024/01/30 05:55:16;;;;;;;12.73;8.10;;;;;;;8.10;100.00;102430.28;5039781;28;20035;-67
2024/01/30 05:57:42;;;;;;;12.48;8.27;;;;;;;8.08;100.00;102431.22;5035746;28;20482;-66
2024/01/30 06:00:08;;;;;;;12.85;8.35;;;;;;;8.13;100.00;102444.13;5040299;28;20021;-68
2024/01/30 06:02:33;;;;;;;11.80;8.32;;;;;;;8.14;100.00;102443.16;5041059;28;20037;-66
2024/01/30 06:04:59;;;;;;;12.45;7.93;;;;;;;8.11;100.00;102437.28;5038699;28;20082;-67
2024/01/30 06:07:24;;;;;;;11.65;7.78;;;;;;;8.17;100.00;102442.94;5039008;28;20029;-66
2024/01/30 06:09:49;;;;;;;12.07;8.48;;;;;;;8.21;100.00;102449.69;5037211;28;20039;-69
2024/01/30 06:12:15;;;;;;;12.00;8.00;;;;;;;8.23;100.00;102447.75;5045045;28;20024;-69
2024/01/30 06:14:42;;;;;;;11.40;8.38;;;;;;;8.25;100.00;102455.59;5038320;28;20037;-69
2024/01/30 06:17:07;;;;;;;12.45;7.82;;;;;;;8.24;100.00;102459.19;5036036;28;20037;-69
2024/01/30 06:19:33;;;;;;;11.98;8.30;;;;;;;8.22;100.00;102454.03;5050998;28;20621;-69
2024/01/30 06:21:58;;;;;;;12.27;7.90;;;;;;;8.25;100.00;102458.22;5044696;28;20548;-69
2024/01/30 06:24:23;;;;;;;12.90;9.10;;;;;;;8.24;100.00;102446.81;5044924;28;20151;-69
2024/01/30 06:26:49;;;;;;;12.65;8.02;;;;;;;8.24;100.00;102453.91;5043548;28;20035;-69
2024/01/30 06:29:14;;;;;;;12.15;8.40;;;;;;;8.27;100.00;102454.50;5042968;28;20028;-69
2024/01/30 06:31:43;;;;;;;11.15;8.07;;;;;;;8.28;100.00;102456.19;5043344;28;20108;-69
2024/01/30 06:34:09;;;;;;;14.32;8.27;;;;;;;8.30;100.00;102458.72;5043704;28;20482;-69
2024/01/30 06:36:34;;;;;;;11.73;8.43;;;;;;;8.30;100.00;102456.91;5041684;28;20084;-69
2024/01/30 06:39:00;;;;;;;14.95;8.63;;;;;;;8.30;100.00;102464.00;5043940;28;20506;-69
2024/01/30 06:41:25;;;;;;;13.52;7.95;;;;;;;8.29;100.00;102457.03;5041630;28;20035;-69
2024/01/30 06:43:51;;;;;;;11.77;8.57;;;;;;;8.32;100.00;102462.94;5045608;28;20646;-69
2024/01/30 06:46:17;;;;;;;16.73;8.85;;;;;;;8.35;100.00;102461.88;5044233;28;20105;-69
2024/01/30 06:48:44;;;;;;;15.63;8.48;;;;;;;8.36;100.00;102475.00;5041024;28;20716;-69
2024/01/30 06:51:10;;;;;;;15.10;8.50;;;;;;;8.37;100.00;102471.41;5044479;28;20118;-69
2024/01/30 06:53:35;;;;;;;17.63;8.07;;;;;;;8.41;100.00;102469.41;5038841;28;20025;-69
2024/01/30 06:56:01;;;;;;;13.52;8.57;;;;;;;8.46;100.00;102469.03;5038791;28;20032;-69
2024/01/30 06:58:26;;;;;;;14.45;8.40;;;;;;;8.44;100.00;102470.97;5049305;28;20502;-69
2024/01/30 07:00:51;;;;;;;16.98;8.50;;;;;;;8.46;100.00;102479.63;5040942;28;20060;-69
2024/01/30 07:03:16;;;;;;;10.93;7.60;;;;;;;8.47;100.00;102470.72;5035263;28;20471;-69
2024/01/30 07:05:42;;;;;;;12.80;8.32;;;;;;;8.48;100.00;102483.00;5037314;28;20032;-69
2024/01/30 07:08:08;;;;;;;14.55;8.15;;;;;;;8.49;100.00;102496.13;5042938;28;20396;-69
2024/01/30 07:10:33;;;;;;;12.88;8.65;;;;;;;8.49;100.00;102495.28;5039656;28;20040;-69
2024/01/30 07:13:00;;;;;;;11.57;8.05;;;;;;;8.51;100.00;102506.59;5031142;28;20060;-70
2024/01/30 07:15:25;;;;;;;11.30;7.97;;;;;;;8.50;100.00;102500.47;5039666;28;20762;-69
2024/01/30 07:17:51;;;;;;;10.65;8.43;;;;;;;8.53;100.00;102496.72;5041137;28;20037;-69
2024/01/30 07:20:16;;;;;;;12.35;8.68;;;;;;;8.57;100.00;102498.19;5041603;28;20407;-69
2024/01/30 07:22:43;;;;;;;12.38;8.40;;;;;;;8.59;100.00;102504.19;5042920;28;20039;-69
2024/01/30 07:25:09;;;;;;;13.75;8.15;;;;;;;8.59;100.00;102498.91;5031184;28;20060;-69
2024/01/30 07:27:34;;;;;;;11.95;8.38;;;;;;;8.66;100.00;102494.81;5035273;28;20569;-69
2024/01/30 07:29:59;;;;;;;11.25;8.30;;;;;;;8.69;100.00;102502.56;5034191;28;20033;-69
2024/01/30 07:32:25;;;;;;;13.07;8.07;;;;;;;8.69;100.00;102503.41;5036550;28;20039;-69
2024/01/30 07:34:50;;;;;;;11.00;7.65;;;;;;;8.71;100.00;102505.94;5035233;28;20513;-69
2024/01/30 07:37:16;;;;;;;12.55;7.90;;;;;;;8.74;100.00;102513.63;5035140;28;20102;-69
2024/01/30 07:39:42;;;;;;;12.68;8.65;;;;;;;8.77;100.00;102518.69;5037929;28;20037;-69
2024/01/30 07:42:08;;;;;;;10.73;8.35;;;;;;;8.80;100.00;102526.41;5038161;28;20021;-70
2024/01/30 07:44:33;;;;;;;12.88;8.32;;;;;;;8.80;100.00;102518.47;5036135;28;20157;-69
2024/01/30 07:46:59;;;;;;;13.93;8.30;;;;;;;8.82;100.00;102519.19;5037650;28;20055;-69
2024/01/30 07:49:25;;;;;;;15.10;8.65;;;;;;;8.82;100.00;102523.63;5040465;28;20036;-69
2024/01/30 07:51:50;;;;;;;13.43;8.38;;;;;;;8.86;100.00;102511.84;5039971;28;20067;-69
2024/01/30 07:54:16;;;;;;;10.40;7.97;;;;;;;8.89;100.00;102514.25;5039239;28;21327;-69
2024/01/30 07:56:41;;;;;;;12.93;7.50;;;;;;;8.93;100.00;102521.84;5034803;28;20112;-69
2024/01/30 07:59:10;;;;;;;12.02;8.57;;;;;;;8.94;100.00;102523.53;5041443;28;20114;-69
2024/01/30 08:01:35;;;;;;;11.23;7.72;;;;;;;8.97;100.00;102525.13;5041870;28;20674;-69
2024/01/30 08:04:00;;;;;;;12.15;7.75;;;;;;;8.99;100.00;102526.69;5042902;28;20028;-67
2024/01/30 08:06:26;;;;;;;11.32;7.90;;;;;;;9.00;100.00;102535.47;5031594;28;20025;-67
2024/01/30 08:08:53;;;;;;;12.45;7.95;;;;;;;9.01;100.00;102529.22;5036362;28;20029;-67
2024/01/30 08:11:20;;;;;;;12.82;8.05;;;;;;;9.02;100.00;102535.34;5036240;28;20028;-67
2024/01/30 08:13:45;;;;;;;15.05;8.05;;;;;;;9.04;100.00;102533.44;5037651;28;20032;-66
2024/01/30 08:16:10;;;;;;;12.65;8.25;;;;;;;9.02;100.00;102536.19;5037498;28;20029;-66
2024/01/30 08:18:35;;;;;;;13.68;8.70;;;;;;;8.96;100.00;102524.28;5039592;28;20028;-67
2024/01/30 08:21:01;;;;;;;12.15;8.25;;;;;;;9.03;100.00;102532.59;5048121;28;20031;-67
2024/01/30 08:23:26;;;;;;;14.70;8.48;;;;;;;9.04;100.00;102531.63;5039325;28;20051;-67
2024/01/30 08:25:51;;;;;;;10.98;8.10;;;;;;;9.07;100.00;102539.34;5036919;28;20074;-67
2024/01/30 08:28:17;;;;;;;11.95;7.85;;;;;;;9.08;100.00;102535.72;5037345;28;20033;-66
2024/01/30 08:30:42;;;;;;;13.73;8.48;;;;;;;9.12;100.00;102546.91;5045132;28;20036;-67
2024/01/30 08:33:07;;;;;;;13.13;8.25;;;;;;;9.15;100.00;102544.88;5039731;28;20032;-66
2024/01/30 08:35:33;;;;;;;13.15;8.52;;;;;;;9.20;100.00;102547.16;5041310;28;20497;-66
2024/01/30 08:37:59;;;;;;;11.57;7.88;;;;;;;9.25;100.00;102545.88;5043852;28;20490;-68
2024/01/30 08:40:24;;;;;;;14.02;8.65;;;;;;;9.32;100.00;102544.41;5042097;28;20696;-66
2024/01/30 08:42:49;;;;;;;18.90;8.32;;;;;;;9.38;100.00;102548.38;5039844;28;20025;-66
2024/01/30 08:45:15;;;;;;;12.88;8.55;;;;;;;9.41;100.00;102552.59;5043506;28;20032;-67
2024/01/30 08:47:40;;;;;;;14.20;8.45;;;;;;;9.42;100.00;102547.16;5040377;28;20044;-67
2024/01/30 08:50:06;;;;;;;12.73;8.30;;;;;;;9.46;100.00;102540.66;5039715;28;20083;-66
2024/01/30 08:52:33;;;;;;;14.57;8.68;;;;;;;9.47;100.00;102539.69;5039806;28;20490;-67
2024/01/30 08:54:59;;;;;;;14.77;8.60;;;;;;;9.52;100.00;102539.31;5032110;28;20056;-67
2024/01/30 08:57:24;;;;;;;14.50;8.10;;;;;;;9.54;100.00;102535.59;5031843;28;20080;-66
2024/01/30 08:59:49;;;;;;;15.13;8.75;;;;;;;9.55;100.00;102541.75;5035260;28;20847;-66
2024/01/30 09:02:16;;;;;;;16.83;8.25;;;;;;;9.59;100.00;102541.38;5033471;28;20100;-67
2024/01/30 09:04:41;;;;;;;13.95;8.80;;;;;;;9.64;100.00;102543.66;5039125;28;20422;-66
2024/01/30 09:07:09;;;;;;;14.15;8.20;;;;;;;9.69;100.00;102549.44;5039876;28;20021;-67
2024/01/30 09:09:34;;;;;;;15.93;8.80;;;;;;;9.67;100.00;102547.88;5033853;28;20029;-66
2024/01/30 09:12:04;;;;;;;12.43;8.25;;;;;;;9.72;100.00;102543.88;5039330;28;20631;-67
2024/01/30 09:14:29;;;;;;;13.23;7.95;;;;;;;9.74;100.00;102543.75;5033519;28;20024;-66
2024/01/30 09:16:55;;;;;;;15.70;8.63;;;;;;;9.76;100.00;102552.44;5043469;28;20063;-67
2024/01/30 09:19:20;;;;;;;13.18;8.50;;;;;;;9.79;100.00;102555.69;5036706;28;20135;-66
2024/01/30 09:21:45;;;;;;;14.32;8.25;;;;;;;9.81;100.00;102547.59;5038100;28;20094;-67
2024/01/30 09:24:11;;;;;;;14.88;8.63;;;;;;;9.92;100.00;102552.91;5044272;28;20044;-67
2024/01/30 09:26:36;;;;;;;12.77;8.23;;;;;;;9.95;100.00;102565.91;5038150;28;20104;-67
2024/01/30 09:29:01;;;;;;;13.57;8.25;;;;;;;9.96;100.00;102562.28;5036087;28;20471;-67
2024/01/30 09:31:27;;;;;;;13.88;8.70;;;;;;;10.01;100.00;102559.25;5037172;28;20120;-67
2024/01/30 09:33:53;;;;;;;13.32;8.25;;;;;;;10.04;100.00;102578.44;5036522;28;20029;-66
2024/01/30 09:36:19;;;;;;;13.75;8.50;;;;;;;10.07;100.00;102582.66;5039359;28;21113;-66
2024/01/30 09:38:45;;;;;;;14.85;8.45;;;;;;;10.10;100.00;102583.25;5038216;28;20029;-66
2024/01/30 09:41:11;;;;;;;12.98;8.63;;;;;;;10.14;100.00;102578.56;5038652;28;20025;-66
2024/01/30 09:43:38;;;;;;;13.80;9.18;;;;;;;10.09;100.00;102570.94;5038749;28;20024;-67
2024/01/30 09:46:05;;;;;;;13.57;8.93;;;;;;;10.18;100.00;102582.63;5037162;28;20595;-67
2024/01/30 09:48:31;;;;;;;17.95;8.55;;;;;;;10.18;100.00;102580.81;5041718;28;20052;-67
2024/01/30 09:50:57;;;;;;;14.25;8.38;;;;;;;10.20;100.00;102583.34;5040458;28;20021;-66
2024/01/30 09:53:23;;;;;;;17.52;8.75;;;;;;;10.19;100.00;102579.00;5041372;28;20439;-66
2024/01/30 09:55:50;;;;;;;19.30;9.40;;;;;;;10.22;100.00;102579.63;5034564;28;20039;-66
2024/01/30 09:58:16;;;;;;;14.25;8.48;;;;;;;10.22;100.00;102578.78;5038118;28;20450;-67
2024/01/30 10:00:42;;;;;;;16.90;8.43;;;;;;;10.22;100.00;102584.94;5043273;28;20506;-67
2024/01/30 10:03:08;;;;;;;13.40;8.30;;;;;;;10.25;100.00;102583.84;5033265;28;20105;-67
2024/01/30 10:05:35;;;;;;;13.18;8.60;;;;;;;10.28;100.00;102580.09;5039938;28;20021;-66
2024/01/30 10:08:01;;;;;;;15.82;8.65;;;;;;;10.29;100.00;102582.63;5034604;28;20025;-67
2024/01/30 10:10:26;;;;;;;15.48;9.05;;;;;;;10.29;100.00;102590.59;5038007;28;20074;-66
2024/01/30 10:12:51;;;;;;;13.93;8.82;;;;;;;10.27;100.00;102592.53;5033424;28;20491;-67
2024/01/30 10:15:18;;;;;;;12.95;8.68;;;;;;;10.26;99.86;102588.19;5040661;28;20033;-67
2024/01/30 10:17:45;;;;;;;14.55;8.63;;;;;;;10.27;100.00;102592.53;5036472;28;20039;-67
2024/01/30 10:20:11;;;;;;;16.15;8.95;;;;;;;10.27;100.00;102599.66;5039365;28;20027;-67
2024/01/30 10:22:36;;;;;;;15.15;8.60;;;;;;;10.30;100.00;102599.41;5040439;28;20021;-67
2024/01/30 10:25:02;;;;;;;15.00;8.52;;;;;;;10.35;100.00;102605.16;5036077;28;20033;-67
2024/01/30 10:27:29;;;;;;;15.68;8.75;;;;;;;10.39;100.00;102598.63;5044650;28;20024;-66
2024/01/30 10:29:55;;;;;;;15.68;8.70;;;;;;;10.44;100.00;102602.63;5035355;28;20250;-67
2024/01/30 10:32:21;;;;;;;14.85;8.50;;;;;;;10.48;100.00;102595.25;5044047;28;20025;-67
2024/01/30 10:34:46;;;;;;;14.63;8.63;;;;;;;10.52;99.84;102613.44;5040669;28;20032;-68
2024/01/30 10:37:17;;;;;;;14.73;8.82;;;;;;;10.53;100.00;102607.16;5041079;28;20028;-67
2024/01/30 10:39:46;;;;;;;14.40;8.88;;;;;;;10.57;99.91;102607.75;5041233;28;20116;-67
2024/01/30 10:42:13;;;;;;;15.13;8.85;;;;;;;10.59;99.71;102602.31;5042455;28;20036;-66
2024/01/30 10:45:12;;;;;;;17.33;8.80;;;;;;;10.62;99.83;102602.88;5044660;28;20135;-67
2024/01/30 10:47:40;;;;;;;14.10;8.60;;;;;;;10.65;99.77;102607.09;5040215;28;20025;-67
2024/01/30 10:50:05;;;;;;;14.27;9.07;;;;;;;10.69;99.65;102606.72;5042298;28;20044;-70
2024/01/30 10:52:32;;;;;;;16.63;9.07;;;;;;;10.74;99.48;102609.84;5039267;28;20032;-70
2024/01/30 10:54:58;;;;;;;14.95;8.18;;;;;;;10.77;99.18;102614.91;5042910;28;20029;-70
2024/01/30 10:57:24;;;;;;;15.48;8.20;;;;;;;10.82;98.56;102617.19;5050980;28;20410;-70
2024/01/30 10:59:52;;;;;;;17.05;8.77;;;;;;;10.81;98.39;102618.16;5049113;28;20487;-69
2024/01/30 11:02:19;;;;;;;15.00;7.72;;;;;;;10.87;97.68;102607.00;5043754;28;20025;-69
2024/01/30 11:04:45;;;;;;;10.48;7.22;;;;;;;10.92;96.21;102623.41;5039309;28;20032;-71
2024/01/30 11:07:18;;;;;;;11.25;6.63;;;;;;;10.96;95.62;102618.66;5048375;28;20470;-70
2024/01/30 11:09:50;;;;;;;10.57;6.80;;;;;;;10.98;94.32;102619.38;5044990;28;20099;-69